createdAt,value
2024-02-29T00:01:08.726Z,11.63
2024-02-29T00:04:14.787Z,10.90
2024-02-29T00:07:24.694Z,9.73
2024-02-29T00:10:32.731Z,12.23
2024-02-29T00:13:42.594Z,10.90
2024-02-29T00:16:50.369Z,10.47
2024-02-29T00:19:57.605Z,9.83
2024-02-29T00:23:39.031Z,10.50
2024-02-29T00:26:52.979Z,12.70
2024-02-29T00:37:14.308Z,10.27
2024-02-29T00:40:25.364Z,11.70
2024-02-29T00:47:01.299Z,11.87
2024-02-29T00:50:17.601Z,11.57
2024-02-29T00:53:26.008Z,10.00
2024-02-29T00:56:34.963Z,10.83
2024-02-29T00:59:56.601Z,11.43
2024-02-29T01:03:05.820Z,11.70
2024-02-29T01:06:29.667Z,10.37
2024-02-29T01:09:40.857Z,12.07
2024-02-29T01:12:51.716Z,10.60
2024-02-29T01:15:57.880Z,10.97
2024-02-29T01:19:08.140Z,11.13
2024-02-29T01:22:17.888Z,11.13
2024-02-29T01:25:26.786Z,10.77
2024-02-29T01:28:46.634Z,12.33
2024-02-29T01:31:54.576Z,11.00
2024-02-29T01:35:00.282Z,11.07
2024-02-29T01:38:03.208Z,11.87
2024-02-29T01:41:06.822Z,10.80
2024-02-29T01:44:10.938Z,11.00
2024-02-29T01:47:14.325Z,10.73
2024-02-29T01:50:18.037Z,9.80
2024-02-29T01:53:20.815Z,10.53
2024-02-29T01:56:23.716Z,10.83
2024-02-29T01:59:29.068Z,9.87
2024-02-29T02:02:32.046Z,10.70
2024-02-29T02:05:35.339Z,11.13
2024-02-29T02:08:38.273Z,11.23
2024-02-29T02:11:41.005Z,11.23
2024-02-29T02:14:45.825Z,10.60
2024-02-29T02:17:51.290Z,11.33
2024-02-29T02:20:56.245Z,11.20
2024-02-29T02:23:59.040Z,11.23
2024-02-29T02:27:02.088Z,10.93
2024-02-29T02:30:08.107Z,11.30
2024-02-29T02:33:12.029Z,11.33
2024-02-29T02:36:16.284Z,11.00
2024-02-29T02:39:19.296Z,10.77
2024-02-29T02:42:22.175Z,11.83
2024-02-29T02:45:26.030Z,11.17
2024-02-29T02:48:29.021Z,12.37
2024-02-29T02:51:33.325Z,12.53
2024-02-29T02:54:36.117Z,12.13
2024-02-29T02:57:38.912Z,10.83
2024-02-29T03:00:41.749Z,13.07
2024-02-29T03:03:44.692Z,11.13
2024-02-29T03:06:48.976Z,11.33
2024-02-29T03:09:51.839Z,12.30
2024-02-29T03:12:54.627Z,11.97
2024-02-29T03:15:57.532Z,12.23
2024-02-29T03:19:00.564Z,12.93
2024-02-29T03:22:04.737Z,13.00
2024-02-29T03:25:08.188Z,12.37
2024-02-29T03:28:11.393Z,11.80
2024-02-29T03:31:15.219Z,12.10
2024-02-29T03:34:18.147Z,11.13
2024-02-29T03:37:22.930Z,11.83
2024-02-29T03:40:25.694Z,12.63
2024-02-29T03:43:28.571Z,13.73
2024-02-29T03:46:31.400Z,12.17
2024-02-29T03:49:34.248Z,11.33
2024-02-29T03:52:38.290Z,12.40
2024-02-29T03:55:41.098Z,12.10
2024-02-29T03:58:43.937Z,12.80
2024-02-29T04:01:50.058Z,11.90
2024-02-29T04:04:53.317Z,12.93
2024-02-29T04:08:01.942Z,11.63
2024-02-29T04:11:05.466Z,11.40
2024-02-29T04:14:08.560Z,12.63
2024-02-29T04:17:11.433Z,11.80
2024-02-29T04:20:14.250Z,12.37
2024-02-29T04:23:18.641Z,11.97
2024-02-29T04:26:21.324Z,13.00
2024-02-29T04:29:23.944Z,12.17
2024-02-29T04:32:26.661Z,12.20
2024-02-29T04:35:29.356Z,12.20
2024-02-29T04:38:33.677Z,12.70
2024-02-29T04:41:36.310Z,11.87
2024-02-29T04:44:39.012Z,10.63
2024-02-29T04:47:42.049Z,11.63
2024-02-29T04:50:44.950Z,12.17
2024-02-29T04:53:49.212Z,12.00
2024-02-29T04:56:51.906Z,12.87
2024-02-29T04:59:54.653Z,11.77
2024-02-29T05:02:57.343Z,12.43
2024-02-29T05:06:00.083Z,12.70
2024-02-29T05:09:04.305Z,12.50
2024-02-29T05:12:07.523Z,12.70
2024-02-29T05:15:10.271Z,14.23
2024-02-29T05:18:13.192Z,12.13
2024-02-29T05:21:15.981Z,13.40
2024-02-29T05:24:20.013Z,13.23
2024-02-29T05:27:22.725Z,13.60
2024-02-29T05:30:26.567Z,11.53
2024-02-29T05:33:29.302Z,13.53
2024-02-29T05:36:32.971Z,13.10
2024-02-29T05:39:37.064Z,12.63
2024-02-29T05:42:39.797Z,14.27
2024-02-29T05:45:42.904Z,13.87
2024-02-29T05:48:45.565Z,14.10
2024-02-29T05:51:51.075Z,14.07
2024-02-29T05:55:04.065Z,12.53
2024-02-29T05:58:11.895Z,12.70
2024-02-29T06:01:22.548Z,13.23
2024-02-29T06:04:50.568Z,13.90
2024-02-29T06:08:09.624Z,13.00
2024-02-29T06:11:20.938Z,12.80
2024-02-29T06:14:26.728Z,13.10
2024-02-29T06:17:34.601Z,13.03
2024-02-29T06:20:51.428Z,11.40
2024-02-29T06:24:01.589Z,11.57
2024-02-29T06:27:30.616Z,12.90
2024-02-29T06:30:41.898Z,12.07
2024-02-29T06:33:56.830Z,13.03
2024-02-29T06:37:06.063Z,11.17
2024-02-29T06:40:17.675Z,12.50
2024-02-29T06:43:42.270Z,13.07
2024-02-29T06:46:52.743Z,12.17
2024-02-29T06:50:21.718Z,12.60
2024-02-29T06:53:41.210Z,11.77
2024-02-29T06:57:02.932Z,14.27
2024-02-29T07:00:42.584Z,12.70
2024-02-29T07:03:55.939Z,12.47
2024-02-29T07:07:11.313Z,13.67
2024-02-29T07:10:30.304Z,13.80
2024-02-29T07:13:45.947Z,13.37
2024-02-29T07:17:55.048Z,12.93
2024-02-29T07:21:19.139Z,14.73
2024-02-29T07:24:38.718Z,14.00
2024-02-29T07:27:50.082Z,14.67
2024-02-29T07:31:00.188Z,14.53
2024-02-29T07:34:12.964Z,14.43
2024-02-29T07:37:51.737Z,15.10
2024-02-29T07:41:02.621Z,15.73
2024-02-29T07:44:31.638Z,14.93
2024-02-29T07:47:50.839Z,15.50
2024-02-29T07:51:21.602Z,14.23
2024-02-29T07:54:39.639Z,14.63
2024-02-29T07:57:52.272Z,14.10
2024-02-29T08:01:15.477Z,15.03
2024-02-29T08:04:29.894Z,15.93
2024-02-29T08:19:49.980Z,15.40
2024-02-29T08:58:38.566Z,15.20
2024-02-29T09:30:21.415Z,14.43
2024-02-29T09:39:00.032Z,12.93
2024-02-29T10:09:39.113Z,13.97
2024-02-29T10:39:23.480Z,13.18
2024-02-29T11:45:54.241Z,12.55
2024-02-29T11:50:14.728Z,11.93
2024-02-29T12:01:02.832Z,13.23
2024-02-29T12:04:13.985Z,12.52
2024-02-29T12:07:47.349Z,11.40
2024-02-29T12:11:30.138Z,10.30
2024-02-29T12:18:43.458Z,10.68
2024-02-29T12:22:25.925Z,11.25
2024-02-29T12:30:09.896Z,9.95
2024-02-29T12:33:34.987Z,8.95
2024-02-29T12:37:29.832Z,8.30
2024-02-29T12:56:58.819Z,7.38
2024-02-29T13:04:28.821Z,6.80
2024-02-29T13:08:13.844Z,7.20
2024-02-29T13:11:43.091Z,6.93
2024-02-29T13:15:30.722Z,6.75
2024-02-29T13:19:07.918Z,6.15
2024-02-29T13:23:33.840Z,6.68
2024-02-29T13:39:15.590Z,6.40
2024-02-29T13:51:35.914Z,6.18
2024-02-29T13:55:23.919Z,6.53
2024-02-29T13:59:15.227Z,5.65
2024-02-29T14:03:14.174Z,5.55
2024-02-29T14:06:48.636Z,6.47
2024-02-29T14:14:26.147Z,6.30
2024-02-29T14:21:49.931Z,6.30
2024-02-29T14:29:12.684Z,6.07
2024-02-29T14:32:41.246Z,6.50
2024-02-29T14:36:17.771Z,6.50
2024-02-29T14:47:53.416Z,6.03
2024-02-29T14:51:43.607Z,6.18
2024-02-29T14:55:23.783Z,6.18
2024-02-29T14:58:57.180Z,6.43
2024-02-29T15:06:24.037Z,6.78
2024-02-29T15:10:01.481Z,7.28
2024-02-29T15:17:54.808Z,6.82
2024-02-29T15:21:40.727Z,6.97
2024-02-29T15:29:20.833Z,7.63
2024-02-29T15:33:17.035Z,7.07
2024-02-29T15:36:45.764Z,7.63
2024-02-29T15:45:02.864Z,7.18
2024-02-29T15:52:26.667Z,8.02
2024-02-29T15:56:05.923Z,7.60
2024-02-29T16:00:12.093Z,7.93
2024-02-29T16:12:24.862Z,8.27
2024-02-29T16:16:16.519Z,8.05
2024-02-29T16:20:29.629Z,7.95
2024-02-29T16:24:28.072Z,7.70
2024-02-29T16:27:44.986Z,8.48
2024-02-29T16:31:24.361Z,7.72
2024-02-29T16:34:52.870Z,7.47
2024-02-29T16:38:16.702Z,9.33
2024-02-29T16:42:22.930Z,9.37
2024-02-29T16:49:30.083Z,11.10
2024-02-29T17:00:35.622Z,10.77
2024-02-29T17:12:18.303Z,10.80
2024-02-29T17:15:46.489Z,10.40
2024-02-29T17:23:11.207Z,9.70
2024-02-29T17:27:09.751Z,10.00
2024-02-29T17:35:03.699Z,9.93
2024-02-29T17:43:18.335Z,10.93
2024-02-29T17:46:54.565Z,9.07
2024-02-29T17:54:06.177Z,9.23
2024-02-29T17:57:49.439Z,11.07
2024-02-29T18:14:12.495Z,9.27
2024-02-29T18:17:40.423Z,10.03
2024-02-29T18:21:34.768Z,10.77
2024-02-29T18:25:34.150Z,9.23
2024-02-29T18:29:19.293Z,10.17
2024-02-29T18:53:43.450Z,12.63
2024-02-29T18:57:16.237Z,10.77
2024-02-29T19:01:39.981Z,11.43
2024-02-29T19:34:29.890Z,10.87
2024-02-29T19:38:28.216Z,11.90
2024-02-29T19:51:29.973Z,11.27
2024-02-29T19:55:14.676Z,11.43
2024-02-29T20:03:43.163Z,12.33
2024-02-29T20:07:37.318Z,11.63
2024-02-29T20:16:04.153Z,10.00
2024-02-29T20:24:08.263Z,10.47
2024-02-29T21:24:00.190Z,9.13
2024-02-29T22:05:00.686Z,9.93
2024-02-29T22:31:54.270Z,11.17
2024-02-29T22:58:07.691Z,10.63
2024-02-29T23:18:06.522Z,10.17
2024-02-29T23:21:35.729Z,9.70
2024-02-29T23:32:26.649Z,10.23
2024-02-29T23:49:34.798Z,10.10
2024-02-29T23:53:22.832Z,10.83
2024-02-29T23:57:46.832Z,10.40
